sensor_id;sensor_type;location;lat;lon;timestamp;P1;durP1;ratioP1;P2;durP2;ratioP2
46222;SDS011;31943;51.410;7.564;2023-10-31T00:02:06;0.77;;;0.77;;
46222;SDS011;31943;51.410;7.564;2023-10-31T00:04:32;0.90;;;0.70;;
46222;SDS011;31943;51.410;7.564;2023-10-31T00:06:57;0.80;;;0.80;;
46222;SDS011;31943;51.410;7.564;2023-10-31T00:09:23;1.38;;;0.90;;
46222;SDS011;31943;51.410;7.564;2023-10-31T00:11:48;1.90;;;1.73;;
46222;SDS011;31943;51.410;7.564;2023-10-31T00:14:15;1.55;;;1.45;;
46222;SDS011;31943;51.410;7.564;2023-10-31T00:16:40;4.03;;;1.85;;
46222;SDS011;31943;51.410;7.564;2023-10-31T00:19:06;2.95;;;1.80;;
46222;SDS011;31943;51.410;7.564;2023-10-31T00:21:31;1.67;;;1.58;;
46222;SDS011;31943;51.410;7.564;2023-10-31T00:23:57;1.60;;;1.50;;
46222;SDS011;31943;51.410;7.564;2023-10-31T00:26:22;1.20;;;1.10;;
46222;SDS011;31943;51.410;7.564;2023-10-31T00:28:48;1.10;;;0.98;;
46222;SDS011;31943;51.410;7.564;2023-10-31T00:31:15;1.35;;;1.10;;
46222;SDS011;31943;51.410;7.564;2023-10-31T00:33:41;1.10;;;1.00;;
46222;SDS011;31943;51.410;7.564;2023-10-31T00:36:07;1.23;;;1.13;;
46222;SDS011;31943;51.410;7.564;2023-10-31T00:38:32;1.08;;;0.98;;
46222;SDS011;31943;51.410;7.564;2023-10-31T00:40:58;1.27;;;1.17;;
46222;SDS011;31943;51.410;7.564;2023-10-31T00:43:23;1.20;;;1.10;;
46222;SDS011;31943;51.410;7.564;2023-10-31T00:45:49;1.65;;;1.20;;
46222;SDS011;31943;51.410;7.564;2023-10-31T00:48:16;1.48;;;0.88;;
46222;SDS011;31943;51.410;7.564;2023-10-31T00:50:42;1.00;;;0.90;;
46222;SDS011;31943;51.410;7.564;2023-10-31T00:53:08;1.60;;;0.80;;
46222;SDS011;31943;51.410;7.564;2023-10-31T00:55:34;1.42;;;0.80;;
46222;SDS011;31943;51.410;7.564;2023-10-31T00:57:59;1.38;;;1.17;;
46222;SDS011;31943;51.410;7.564;2023-10-31T01:00:25;2.22;;;1.30;;
46222;SDS011;31943;51.410;7.564;2023-10-31T01:02:50;1.85;;;1.33;;
46222;SDS011;31943;51.410;7.564;2023-10-31T01:05:17;1.38;;;1.27;;
46222;SDS011;31943;51.410;7.564;2023-10-31T01:07:43;1.85;;;1.75;;
46222;SDS011;31943;51.410;7.564;2023-10-31T01:10:09;3.35;;;1.45;;
46222;SDS011;31943;51.410;7.564;2023-10-31T01:12:34;1.63;;;1.52;;
46222;SDS011;31943;51.410;7.564;2023-10-31T01:15:00;2.40;;;1.70;;
46222;SDS011;31943;51.410;7.564;2023-10-31T01:17:25;3.08;;;1.30;;
46222;SDS011;31943;51.410;7.564;2023-10-31T01:19:51;1.58;;;1.20;;
46222;SDS011;31943;51.410;7.564;2023-10-31T01:22:19;1.10;;;1.00;;
46222;SDS011;31943;51.410;7.564;2023-10-31T01:24:45;1.15;;;0.90;;
46222;SDS011;31943;51.410;7.564;2023-10-31T01:27:10;1.85;;;1.00;;
46222;SDS011;31943;51.410;7.564;2023-10-31T01:29:35;2.67;;;1.13;;
46222;SDS011;31943;51.410;7.564;2023-10-31T01:32:01;3.03;;;1.10;;
46222;SDS011;31943;51.410;7.564;2023-10-31T01:34:26;1.40;;;1.30;;
46222;SDS011;31943;51.410;7.564;2023-10-31T01:36:52;1.23;;;1.00;;
46222;SDS011;31943;51.410;7.564;2023-10-31T01:39:19;1.15;;;1.00;;
46222;SDS011;31943;51.410;7.564;2023-10-31T01:41:47;2.25;;;0.90;;
46222;SDS011;31943;51.410;7.564;2023-10-31T01:44:13;1.08;;;0.98;;
46222;SDS011;31943;51.410;7.564;2023-10-31T01:46:38;3.40;;;1.30;;
46222;SDS011;31943;51.410;7.564;2023-10-31T01:49:04;1.05;;;0.95;;
46222;SDS011;31943;51.410;7.564;2023-10-31T01:51:29;1.63;;;1.10;;
46222;SDS011;31943;51.410;7.564;2023-10-31T01:53:55;2.08;;;1.20;;
46222;SDS011;31943;51.410;7.564;2023-10-31T01:56:23;2.08;;;1.25;;
46222;SDS011;31943;51.410;7.564;2023-10-31T01:58:50;2.25;;;1.67;;
46222;SDS011;31943;51.410;7.564;2023-10-31T02:01:17;4.35;;;1.50;;
46222;SDS011;31943;51.410;7.564;2023-10-31T02:03:43;1.25;;;1.10;;
46222;SDS011;31943;51.410;7.564;2023-10-31T02:06:09;1.73;;;1.10;;
46222;SDS011;31943;51.410;7.564;2023-10-31T02:08:34;1.83;;;1.20;;
46222;SDS011;31943;51.410;7.564;2023-10-31T02:11:00;2.28;;;1.15;;
46222;SDS011;31943;51.410;7.564;2023-10-31T02:13:27;3.45;;;1.50;;
46222;SDS011;31943;51.410;7.564;2023-10-31T02:15:52;3.22;;;1.40;;
46222;SDS011;31943;51.410;7.564;2023-10-31T02:18:18;1.80;;;1.20;;
46222;SDS011;31943;51.410;7.564;2023-10-31T02:20:43;1.80;;;1.08;;
46222;SDS011;31943;51.410;7.564;2023-10-31T02:23:10;1.85;;;1.20;;
46222;SDS011;31943;51.410;7.564;2023-10-31T02:25:36;2.00;;;1.20;;
46222;SDS011;31943;51.410;7.564;2023-10-31T02:28:02;2.42;;;1.40;;
46222;SDS011;31943;51.410;7.564;2023-10-31T02:30:27;1.85;;;1.20;;
46222;SDS011;31943;51.410;7.564;2023-10-31T02:32:53;3.00;;;1.35;;
46222;SDS011;31943;51.410;7.564;2023-10-31T02:35:19;4.82;;;1.30;;
46222;SDS011;31943;51.410;7.564;2023-10-31T02:37:45;4.45;;;1.30;;
46222;SDS011;31943;51.410;7.564;2023-10-31T02:40:15;2.65;;;1.40;;
46222;SDS011;31943;51.410;7.564;2023-10-31T02:42:40;2.97;;;1.50;;
46222;SDS011;31943;51.410;7.564;2023-10-31T02:45:06;3.03;;;1.55;;
46222;SDS011;31943;51.410;7.564;2023-10-31T02:47:32;3.53;;;1.50;;
46222;SDS011;31943;51.410;7.564;2023-10-31T02:49:58;2.78;;;1.35;;
46222;SDS011;31943;51.410;7.564;2023-10-31T02:52:25;1.73;;;1.33;;
46222;SDS011;31943;51.410;7.564;2023-10-31T02:54:50;1.63;;;1.40;;
46222;SDS011;31943;51.410;7.564;2023-10-31T02:57:17;2.38;;;1.45;;
46222;SDS011;31943;51.410;7.564;2023-10-31T02:59:43;2.75;;;1.50;;
46222;SDS011;31943;51.410;7.564;2023-10-31T03:02:08;2.17;;;1.40;;
46222;SDS011;31943;51.410;7.564;2023-10-31T03:04:34;2.85;;;1.40;;
46222;SDS011;31943;51.410;7.564;2023-10-31T03:06:59;2.53;;;1.25;;
46222;SDS011;31943;51.410;7.564;2023-10-31T03:09:25;1.50;;;1.20;;
46222;SDS011;31943;51.410;7.564;2023-10-31T03:11:50;1.88;;;1.30;;
46222;SDS011;31943;51.410;7.564;2023-10-31T03:14:17;1.60;;;1.50;;
46222;SDS011;31943;51.410;7.564;2023-10-31T03:16:43;1.67;;;1.33;;
46222;SDS011;31943;51.410;7.564;2023-10-31T03:19:08;3.17;;;1.35;;
46222;SDS011;31943;51.410;7.564;2023-10-31T03:21:34;3.10;;;2.17;;
46222;SDS011;31943;51.410;7.564;2023-10-31T03:23:59;2.53;;;2.15;;
46222;SDS011;31943;51.410;7.564;2023-10-31T03:26:25;4.25;;;2.28;;
46222;SDS011;31943;51.410;7.564;2023-10-31T03:28:50;5.20;;;2.92;;
46222;SDS011;31943;51.410;7.564;2023-10-31T03:31:18;3.50;;;2.90;;
46222;SDS011;31943;51.410;7.564;2023-10-31T03:33:43;5.47;;;3.17;;
46222;SDS011;31943;51.410;7.564;2023-10-31T03:36:09;4.90;;;3.67;;
46222;SDS011;31943;51.410;7.564;2023-10-31T03:38:34;5.43;;;3.65;;
46222;SDS011;31943;51.410;7.564;2023-10-31T03:41:00;6.05;;;4.20;;
46222;SDS011;31943;51.410;7.564;2023-10-31T03:43:26;6.68;;;3.90;;
46222;SDS011;31943;51.410;7.564;2023-10-31T03:45:52;6.35;;;3.67;;
46222;SDS011;31943;51.410;7.564;2023-10-31T03:48:18;5.90;;;4.13;;
46222;SDS011;31943;51.410;7.564;2023-10-31T03:50:44;5.22;;;4.10;;
46222;SDS011;31943;51.410;7.564;2023-10-31T03:53:10;6.28;;;4.47;;
46222;SDS011;31943;51.410;7.564;2023-10-31T03:55:35;7.40;;;4.28;;
46222;SDS011;31943;51.410;7.564;2023-10-31T03:58:01;5.20;;;4.25;;
46222;SDS011;31943;51.410;7.564;2023-10-31T04:00:26;4.75;;;3.90;;
46222;SDS011;31943;51.410;7.564;2023-10-31T04:02:52;5.85;;;4.28;;
46222;SDS011;31943;51.410;7.564;2023-10-31T04:05:19;6.65;;;4.07;;
46222;SDS011;31943;51.410;7.564;2023-10-31T04:07:45;5.35;;;4.13;;
46222;SDS011;31943;51.410;7.564;2023-10-31T04:10:11;5.45;;;4.30;;
46222;SDS011;31943;51.410;7.564;2023-10-31T04:12:40;6.90;;;4.38;;
46222;SDS011;31943;51.410;7.564;2023-10-31T04:15:07;7.22;;;4.28;;
46222;SDS011;31943;51.410;7.564;2023-10-31T04:17:33;6.25;;;4.43;;
46222;SDS011;31943;51.410;7.564;2023-10-31T04:19:58;7.15;;;4.00;;
46222;SDS011;31943;51.410;7.564;2023-10-31T04:22:25;6.03;;;4.43;;
46222;SDS011;31943;51.410;7.564;2023-10-31T04:24:51;9.13;;;4.43;;
46222;SDS011;31943;51.410;7.564;2023-10-31T04:27:16;5.43;;;3.85;;
46222;SDS011;31943;51.410;7.564;2023-10-31T04:29:42;5.28;;;4.05;;
46222;SDS011;31943;51.410;7.564;2023-10-31T04:32:07;4.88;;;3.80;;
46222;SDS011;31943;51.410;7.564;2023-10-31T04:34:33;5.47;;;3.90;;
46222;SDS011;31943;51.410;7.564;2023-10-31T04:36:59;4.55;;;3.90;;
46222;SDS011;31943;51.410;7.564;2023-10-31T04:39:26;5.50;;;4.07;;
46222;SDS011;31943;51.410;7.564;2023-10-31T04:41:51;5.03;;;3.88;;
46222;SDS011;31943;51.410;7.564;2023-10-31T04:44:17;4.75;;;3.80;;
46222;SDS011;31943;51.410;7.564;2023-10-31T04:46:43;5.10;;;4.00;;
46222;SDS011;31943;51.410;7.564;2023-10-31T04:49:08;5.75;;;3.72;;
46222;SDS011;31943;51.410;7.564;2023-10-31T04:51:34;6.80;;;3.35;;
46222;SDS011;31943;51.410;7.564;2023-10-31T04:54:00;4.55;;;3.42;;
46222;SDS011;31943;51.410;7.564;2023-10-31T04:56:27;4.00;;;3.70;;
46222;SDS011;31943;51.410;7.564;2023-10-31T04:58:53;4.88;;;3.40;;
46222;SDS011;31943;51.410;7.564;2023-10-31T05:01:18;4.90;;;3.30;;
46222;SDS011;31943;51.410;7.564;2023-10-31T05:03:44;4.32;;;2.78;;
46222;SDS011;31943;51.410;7.564;2023-10-31T05:06:10;3.33;;;2.78;;
46222;SDS011;31943;51.410;7.564;2023-10-31T05:08:38;4.32;;;2.70;;
46222;SDS011;31943;51.410;7.564;2023-10-31T05:11:04;2.88;;;2.67;;
46222;SDS011;31943;51.410;7.564;2023-10-31T05:13:31;6.80;;;2.90;;
46222;SDS011;31943;51.410;7.564;2023-10-31T05:15:58;2.90;;;2.50;;
46222;SDS011;31943;51.410;7.564;2023-10-31T05:18:23;5.18;;;3.10;;
46222;SDS011;31943;51.410;7.564;2023-10-31T05:20:49;3.47;;;2.13;;
46222;SDS011;31943;51.410;7.564;2023-10-31T05:23:15;3.20;;;2.45;;
46222;SDS011;31943;51.410;7.564;2023-10-31T05:25:40;3.95;;;2.75;;
46222;SDS011;31943;51.410;7.564;2023-10-31T05:28:06;3.03;;;2.72;;
46222;SDS011;31943;51.410;7.564;2023-10-31T05:30:33;4.07;;;2.78;;
46222;SDS011;31943;51.410;7.564;2023-10-31T05:33:00;3.35;;;2.55;;
46222;SDS011;31943;51.410;7.564;2023-10-31T05:35:26;6.38;;;2.85;;
46222;SDS011;31943;51.410;7.564;2023-10-31T05:37:52;3.75;;;2.70;;
46222;SDS011;31943;51.410;7.564;2023-10-31T05:40:17;6.60;;;2.58;;
46222;SDS011;31943;51.410;7.564;2023-10-31T05:42:43;4.40;;;2.60;;
46222;SDS011;31943;51.410;7.564;2023-10-31T05:45:09;4.35;;;2.80;;
46222;SDS011;31943;51.410;7.564;2023-10-31T05:47:36;3.75;;;2.60;;
46222;SDS011;31943;51.410;7.564;2023-10-31T05:50:02;4.25;;;2.90;;
46222;SDS011;31943;51.410;7.564;2023-10-31T05:52:27;3.70;;;2.90;;
46222;SDS011;31943;51.410;7.564;2023-10-31T05:54:53;4.25;;;3.15;;
46222;SDS011;31943;51.410;7.564;2023-10-31T05:57:19;3.53;;;2.92;;
46222;SDS011;31943;51.410;7.564;2023-10-31T05:59:44;3.72;;;3.17;;
46222;SDS011;31943;51.410;7.564;2023-10-31T06:02:10;4.18;;;3.33;;
46222;SDS011;31943;51.410;7.564;2023-10-31T06:04:37;4.35;;;3.30;;
46222;SDS011;31943;51.410;7.564;2023-10-31T06:07:03;4.20;;;3.00;;
46222;SDS011;31943;51.410;7.564;2023-10-31T06:09:29;6.03;;;3.10;;
46222;SDS011;31943;51.410;7.564;2023-10-31T06:11:54;4.97;;;3.38;;
46222;SDS011;31943;51.410;7.564;2023-10-31T06:14:20;5.30;;;3.65;;
46222;SDS011;31943;51.410;7.564;2023-10-31T06:16:46;4.72;;;3.53;;
46222;SDS011;31943;51.410;7.564;2023-10-31T06:19:11;4.50;;;3.45;;
46222;SDS011;31943;51.410;7.564;2023-10-31T06:21:38;5.65;;;3.90;;
46222;SDS011;31943;51.410;7.564;2023-10-31T06:24:04;5.53;;;4.78;;
46222;SDS011;31943;51.410;7.564;2023-10-31T06:26:30;4.95;;;4.45;;
46222;SDS011;31943;51.410;7.564;2023-10-31T06:28:56;4.78;;;4.38;;
46222;SDS011;31943;51.410;7.564;2023-10-31T06:31:21;5.25;;;4.75;;
46222;SDS011;31943;51.410;7.564;2023-10-31T06:33:47;6.45;;;4.90;;
46222;SDS011;31943;51.410;7.564;2023-10-31T06:36:12;5.20;;;4.70;;
46222;SDS011;31943;51.410;7.564;2023-10-31T06:38:39;6.57;;;5.18;;
46222;SDS011;31943;51.410;7.564;2023-10-31T06:41:05;6.72;;;5.45;;
46222;SDS011;31943;51.410;7.564;2023-10-31T06:43:30;5.63;;;5.03;;
46222;SDS011;31943;51.410;7.564;2023-10-31T06:45:56;6.13;;;5.07;;
46222;SDS011;31943;51.410;7.564;2023-10-31T06:48:21;4.80;;;4.38;;
46222;SDS011;31943;51.410;7.564;2023-10-31T06:50:47;5.50;;;4.90;;
46222;SDS011;31943;51.410;7.564;2023-10-31T06:53:12;5.25;;;4.72;;
46222;SDS011;31943;51.410;7.564;2023-10-31T06:55:39;5.07;;;4.57;;
46222;SDS011;31943;51.410;7.564;2023-10-31T06:58:05;5.97;;;4.82;;
46222;SDS011;31943;51.410;7.564;2023-10-31T07:00:30;6.35;;;5.45;;
46222;SDS011;31943;51.410;7.564;2023-10-31T07:02:56;6.80;;;4.63;;
46222;SDS011;31943;51.410;7.564;2023-10-31T07:05:21;6.05;;;4.95;;
46222;SDS011;31943;51.410;7.564;2023-10-31T07:07:47;7.25;;;5.57;;
46222;SDS011;31943;51.410;7.564;2023-10-31T07:10:15;5.93;;;5.32;;
46222;SDS011;31943;51.410;7.564;2023-10-31T07:12:42;6.95;;;5.50;;
46222;SDS011;31943;51.410;7.564;2023-10-31T07:15:08;7.13;;;5.10;;
46222;SDS011;31943;51.410;7.564;2023-10-31T07:17:34;7.50;;;5.15;;
46222;SDS011;31943;51.410;7.564;2023-10-31T07:20:00;6.15;;;5.28;;
46222;SDS011;31943;51.410;7.564;2023-10-31T07:22:25;5.75;;;5.18;;
46222;SDS011;31943;51.410;7.564;2023-10-31T07:24:51;6.70;;;5.50;;
46222;SDS011;31943;51.410;7.564;2023-10-31T07:27:16;5.43;;;4.88;;
46222;SDS011;31943;51.410;7.564;2023-10-31T07:29:43;6.70;;;5.63;;
46222;SDS011;31943;51.410;7.564;2023-10-31T07:32:09;7.15;;;5.20;;
46222;SDS011;31943;51.410;7.564;2023-10-31T07:34:34;6.07;;;5.47;;
46222;SDS011;31943;51.410;7.564;2023-10-31T07:37:00;6.80;;;5.60;;
46222;SDS011;31943;51.410;7.564;2023-10-31T07:39:26;6.35;;;4.90;;
46222;SDS011;31943;51.410;7.564;2023-10-31T07:41:51;4.93;;;4.35;;
46222;SDS011;31943;51.410;7.564;2023-10-31T07:44:17;5.47;;;4.97;;
46222;SDS011;31943;51.410;7.564;2023-10-31T07:46:44;5.18;;;4.65;;
46222;SDS011;31943;51.410;7.564;2023-10-31T07:49:09;6.57;;;4.90;;
46222;SDS011;31943;51.410;7.564;2023-10-31T07:51:35;6.70;;;4.68;;
46222;SDS011;31943;51.410;7.564;2023-10-31T07:54:00;6.40;;;4.72;;
46222;SDS011;31943;51.410;7.564;2023-10-31T07:56:26;6.32;;;4.70;;
46222;SDS011;31943;51.410;7.564;2023-10-31T07:58:52;5.35;;;4.53;;
46222;SDS011;31943;51.410;7.564;2023-10-31T08:01:17;4.90;;;4.20;;
46222;SDS011;31943;51.410;7.564;2023-10-31T08:03:46;6.03;;;4.28;;
46222;SDS011;31943;51.410;7.564;2023-10-31T08:06:12;7.90;;;4.30;;
46222;SDS011;31943;51.410;7.564;2023-10-31T08:08:37;4.13;;;3.70;;
46222;SDS011;31943;51.410;7.564;2023-10-31T08:11:03;4.18;;;3.75;;
46222;SDS011;31943;51.410;7.564;2023-10-31T08:13:32;5.53;;;3.38;;
46222;SDS011;31943;51.410;7.564;2023-10-31T08:15:57;3.78;;;3.38;;
46222;SDS011;31943;51.410;7.564;2023-10-31T08:18:23;5.75;;;4.05;;
46222;SDS011;31943;51.410;7.564;2023-10-31T08:20:50;5.35;;;3.63;;
46222;SDS011;31943;51.410;7.564;2023-10-31T08:23:15;4.90;;;4.20;;
46222;SDS011;31943;51.410;7.564;2023-10-31T08:25:42;4.70;;;4.20;;
46222;SDS011;31943;51.410;7.564;2023-10-31T08:28:07;6.45;;;4.40;;
46222;SDS011;31943;51.410;7.564;2023-10-31T08:30:33;5.10;;;4.43;;
46222;SDS011;31943;51.410;7.564;2023-10-31T08:32:58;5.63;;;5.13;;
46222;SDS011;31943;51.410;7.564;2023-10-31T08:35:24;4.63;;;4.20;;
46222;SDS011;31943;51.410;7.564;2023-10-31T08:37:51;5.55;;;4.57;;
46222;SDS011;31943;51.410;7.564;2023-10-31T08:40:17;5.47;;;4.97;;
46222;SDS011;31943;51.410;7.564;2023-10-31T08:42:43;4.85;;;4.45;;
46222;SDS011;31943;51.410;7.564;2023-10-31T08:45:08;4.95;;;4.55;;
46222;SDS011;31943;51.410;7.564;2023-10-31T08:47:34;6.85;;;5.03;;
46222;SDS011;31943;51.410;7.564;2023-10-31T08:50:00;5.72;;;4.75;;
46222;SDS011;31943;51.410;7.564;2023-10-31T08:52:25;5.05;;;4.55;;
46222;SDS011;31943;51.410;7.564;2023-10-31T08:54:53;4.55;;;4.25;;
46222;SDS011;31943;51.410;7.564;2023-10-31T08:57:18;4.78;;;4.25;;
46222;SDS011;31943;51.410;7.564;2023-10-31T08:59:44;7.90;;;4.40;;
46222;SDS011;31943;51.410;7.564;2023-10-31T09:02:09;4.30;;;3.90;;
46222;SDS011;31943;51.410;7.564;2023-10-31T09:04:35;4.38;;;3.97;;
46222;SDS011;31943;51.410;7.564;2023-10-31T09:07:02;4.63;;;4.18;;
46222;SDS011;31943;51.410;7.564;2023-10-31T09:09:28;3.95;;;3.53;;
46222;SDS011;31943;51.410;7.564;2023-10-31T09:11:55;5.35;;;4.47;;
46222;SDS011;31943;51.410;7.564;2023-10-31T09:14:21;5.32;;;3.90;;
46222;SDS011;31943;51.410;7.564;2023-10-31T09:16:47;5.00;;;4.43;;
46222;SDS011;31943;51.410;7.564;2023-10-31T09:19:13;6.30;;;4.43;;
46222;SDS011;31943;51.410;7.564;2023-10-31T09:21:38;4.72;;;4.13;;
46222;SDS011;31943;51.410;7.564;2023-10-31T09:24:04;5.30;;;4.50;;
46222;SDS011;31943;51.410;7.564;2023-10-31T09:26:30;5.88;;;4.72;;
46222;SDS011;31943;51.410;7.564;2023-10-31T09:28:59;4.88;;;4.18;;
46222;SDS011;31943;51.410;7.564;2023-10-31T09:31:24;4.63;;;3.55;;
46222;SDS011;31943;51.410;7.564;2023-10-31T09:33:50;4.00;;;3.70;;
46222;SDS011;31943;51.410;7.564;2023-10-31T09:36:15;4.32;;;3.85;;
46222;SDS011;31943;51.410;7.564;2023-10-31T09:38:41;5.15;;;3.13;;
46222;SDS011;31943;51.410;7.564;2023-10-31T09:41:06;6.05;;;3.35;;
46222;SDS011;31943;51.410;7.564;2023-10-31T09:43:32;6.00;;;3.60;;
46222;SDS011;31943;51.410;7.564;2023-10-31T09:45:59;3.50;;;3.20;;
46222;SDS011;31943;51.410;7.564;2023-10-31T09:48:25;4.38;;;3.20;;
46222;SDS011;31943;51.410;7.564;2023-10-31T09:50:51;3.92;;;3.00;;
46222;SDS011;31943;51.410;7.564;2023-10-31T09:53:17;3.92;;;3.10;;
46222;SDS011;31943;51.410;7.564;2023-10-31T09:55:45;4.40;;;3.20;;
46222;SDS011;31943;51.410;7.564;2023-10-31T09:58:11;3.47;;;3.10;;
46222;SDS011;31943;51.410;7.564;2023-10-31T10:00:37;5.28;;;3.30;;
46222;SDS011;31943;51.410;7.564;2023-10-31T10:03:04;4.47;;;3.03;;
46222;SDS011;31943;51.410;7.564;2023-10-31T10:05:31;4.72;;;3.30;;
46222;SDS011;31943;51.410;7.564;2023-10-31T10:07:58;4.40;;;3.35;;
46222;SDS011;31943;51.410;7.564;2023-10-31T10:10:23;4.72;;;3.00;;
46222;SDS011;31943;51.410;7.564;2023-10-31T10:12:51;3.75;;;2.97;;
46222;SDS011;31943;51.410;7.564;2023-10-31T10:15:16;4.03;;;2.83;;
46222;SDS011;31943;51.410;7.564;2023-10-31T10:17:47;3.92;;;3.40;;
46222;SDS011;31943;51.410;7.564;2023-10-31T10:20:15;5.05;;;3.10;;
46222;SDS011;31943;51.410;7.564;2023-10-31T10:22:41;5.70;;;3.75;;
46222;SDS011;31943;51.410;7.564;2023-10-31T10:25:07;7.03;;;3.90;;
46222;SDS011;31943;51.410;7.564;2023-10-31T10:27:33;7.57;;;3.78;;
46222;SDS011;31943;51.410;7.564;2023-10-31T10:29:59;4.47;;;3.38;;
46222;SDS011;31943;51.410;7.564;2023-10-31T10:32:24;4.15;;;3.47;;
46222;SDS011;31943;51.410;7.564;2023-10-31T10:34:51;8.10;;;3.83;;
46222;SDS011;31943;51.410;7.564;2023-10-31T10:37:18;7.22;;;4.00;;
46222;SDS011;31943;51.410;7.564;2023-10-31T10:39:44;5.43;;;3.83;;
46222;SDS011;31943;51.410;7.564;2023-10-31T10:42:13;5.55;;;3.60;;
46222;SDS011;31943;51.410;7.564;2023-10-31T10:44:43;6.45;;;4.05;;
46222;SDS011;31943;51.410;7.564;2023-10-31T10:47:09;6.28;;;3.65;;
46222;SDS011;31943;51.410;7.564;2023-10-31T10:49:37;7.10;;;3.88;;
46222;SDS011;31943;51.410;7.564;2023-10-31T10:52:11;5.43;;;3.25;;
46222;SDS011;31943;51.410;7.564;2023-10-31T10:54:44;8.65;;;3.90;;
46222;SDS011;31943;51.410;7.564;2023-10-31T10:57:18;5.53;;;3.95;;
46222;SDS011;31943;51.410;7.564;2023-10-31T10:59:49;5.10;;;3.67;;
46222;SDS011;31943;51.410;7.564;2023-10-31T11:02:16;7.30;;;3.65;;
46222;SDS011;31943;51.410;7.564;2023-10-31T11:04:42;5.32;;;3.65;;
46222;SDS011;31943;51.410;7.564;2023-10-31T11:07:08;4.97;;;3.53;;
46222;SDS011;31943;51.410;7.564;2023-10-31T11:09:34;5.10;;;3.53;;
46222;SDS011;31943;51.410;7.564;2023-10-31T11:12:03;8.40;;;3.33;;
46222;SDS011;31943;51.410;7.564;2023-10-31T11:14:29;6.57;;;3.88;;
46222;SDS011;31943;51.410;7.564;2023-10-31T11:16:58;6.75;;;3.47;;
46222;SDS011;31943;51.410;7.564;2023-10-31T11:19:26;6.82;;;4.03;;
46222;SDS011;31943;51.410;7.564;2023-10-31T11:21:53;6.55;;;3.45;;
46222;SDS011;31943;51.410;7.564;2023-10-31T11:24:20;5.28;;;3.78;;
46222;SDS011;31943;51.410;7.564;2023-10-31T11:26:50;6.72;;;3.67;;
46222;SDS011;31943;51.410;7.564;2023-10-31T11:29:17;3.20;;;2.88;;
46222;SDS011;31943;51.410;7.564;2023-10-31T11:31:43;6.13;;;3.42;;
46222;SDS011;31943;51.410;7.564;2023-10-31T11:34:09;7.32;;;3.25;;
46222;SDS011;31943;51.410;7.564;2023-10-31T11:36:35;5.82;;;3.33;;
46222;SDS011;31943;51.410;7.564;2023-10-31T11:39:09;5.13;;;2.58;;
46222;SDS011;31943;51.410;7.564;2023-10-31T11:41:35;6.13;;;3.10;;
46222;SDS011;31943;51.410;7.564;2023-10-31T11:44:03;6.00;;;3.00;;
46222;SDS011;31943;51.410;7.564;2023-10-31T11:46:30;6.50;;;2.90;;
46222;SDS011;31943;51.410;7.564;2023-10-31T11:48:56;5.25;;;2.80;;
46222;SDS011;31943;51.410;7.564;2023-10-31T11:51:22;3.67;;;2.65;;
46222;SDS011;31943;51.410;7.564;2023-10-31T11:53:48;5.65;;;2.80;;
46222;SDS011;31943;51.410;7.564;2023-10-31T11:56:14;4.03;;;2.17;;
46222;SDS011;31943;51.410;7.564;2023-10-31T11:58:40;5.45;;;2.70;;
46222;SDS011;31943;51.410;7.564;2023-10-31T12:01:06;4.00;;;2.20;;
46222;SDS011;31943;51.410;7.564;2023-10-31T12:03:37;4.45;;;2.50;;
46222;SDS011;31943;51.410;7.564;2023-10-31T12:06:04;6.38;;;2.85;;
46222;SDS011;31943;51.410;7.564;2023-10-31T12:08:32;4.78;;;2.38;;
46222;SDS011;31943;51.410;7.564;2023-10-31T12:11:05;5.60;;;2.35;;
46222;SDS011;31943;51.410;7.564;2023-10-31T12:13:33;6.47;;;2.10;;
46222;SDS011;31943;51.410;7.564;2023-10-31T12:16:00;9.48;;;2.72;;
46222;SDS011;31943;51.410;7.564;2023-10-31T12:18:26;3.78;;;2.00;;
46222;SDS011;31943;51.410;7.564;2023-10-31T12:20:53;6.68;;;1.77;;
46222;SDS011;31943;51.410;7.564;2023-10-31T12:23:18;3.45;;;2.22;;
46222;SDS011;31943;51.410;7.564;2023-10-31T12:25:47;3.65;;;1.70;;
46222;SDS011;31943;51.410;7.564;2023-10-31T12:28:16;5.95;;;1.80;;
46222;SDS011;31943;51.410;7.564;2023-10-31T12:30:44;4.63;;;1.65;;
46222;SDS011;31943;51.410;7.564;2023-10-31T12:33:10;3.78;;;2.08;;
46222;SDS011;31943;51.410;7.564;2023-10-31T12:35:36;6.32;;;1.35;;
46222;SDS011;31943;51.410;7.564;2023-10-31T12:38:03;5.63;;;1.60;;
46222;SDS011;31943;51.410;7.564;2023-10-31T12:40:29;3.13;;;1.20;;
46222;SDS011;31943;51.410;7.564;2023-10-31T12:42:55;5.57;;;1.70;;
46222;SDS011;31943;51.410;7.564;2023-10-31T12:45:20;4.15;;;1.30;;
46222;SDS011;31943;51.410;7.564;2023-10-31T12:47:59;5.93;;;1.30;;
46222;SDS011;31943;51.410;7.564;2023-10-31T12:50:25;3.67;;;1.33;;
46222;SDS011;31943;51.410;7.564;2023-10-31T12:52:51;2.92;;;1.20;;
46222;SDS011;31943;51.410;7.564;2023-10-31T12:55:20;5.40;;;1.23;;
46222;SDS011;31943;51.410;7.564;2023-10-31T12:57:47;5.53;;;1.33;;
46222;SDS011;31943;51.410;7.564;2023-10-31T13:00:13;4.70;;;1.27;;
46222;SDS011;31943;51.410;7.564;2023-10-31T13:02:40;3.97;;;1.20;;
46222;SDS011;31943;51.410;7.564;2023-10-31T13:05:09;7.20;;;1.20;;
46222;SDS011;31943;51.410;7.564;2023-10-31T13:07:36;2.53;;;1.20;;
46222;SDS011;31943;51.410;7.564;2023-10-31T13:10:02;4.97;;;1.40;;
46222;SDS011;31943;51.410;7.564;2023-10-31T13:12:31;5.80;;;1.45;;
46222;SDS011;31943;51.410;7.564;2023-10-31T13:14:56;2.60;;;1.23;;
46222;SDS011;31943;51.410;7.564;2023-10-31T13:17:22;7.93;;;2.00;;
46222;SDS011;31943;51.410;7.564;2023-10-31T13:19:47;4.78;;;1.45;;
46222;SDS011;31943;51.410;7.564;2023-10-31T13:22:13;6.47;;;1.27;;
46222;SDS011;31943;51.410;7.564;2023-10-31T13:24:38;4.38;;;1.40;;
46222;SDS011;31943;51.410;7.564;2023-10-31T13:27:04;4.63;;;1.73;;
46222;SDS011;31943;51.410;7.564;2023-10-31T13:29:31;2.90;;;1.55;;
46222;SDS011;31943;51.410;7.564;2023-10-31T13:31:56;3.60;;;1.23;;
46222;SDS011;31943;51.410;7.564;2023-10-31T13:34:22;3.58;;;1.40;;
46222;SDS011;31943;51.410;7.564;2023-10-31T13:36:47;3.40;;;1.80;;
46222;SDS011;31943;51.410;7.564;2023-10-31T13:39:13;5.38;;;1.42;;
46222;SDS011;31943;51.410;7.564;2023-10-31T13:41:38;2.67;;;1.30;;
46222;SDS011;31943;51.410;7.564;2023-10-31T13:44:04;2.17;;;1.23;;
46222;SDS011;31943;51.410;7.564;2023-10-31T13:46:31;4.60;;;1.40;;
46222;SDS011;31943;51.410;7.564;2023-10-31T13:48:56;3.92;;;1.25;;
46222;SDS011;31943;51.410;7.564;2023-10-31T13:51:22;3.42;;;1.30;;
46222;SDS011;31943;51.410;7.564;2023-10-31T13:53:47;3.88;;;1.40;;
46222;SDS011;31943;51.410;7.564;2023-10-31T13:56:13;3.72;;;1.13;;
46222;SDS011;31943;51.410;7.564;2023-10-31T13:58:39;2.90;;;1.10;;
46222;SDS011;31943;51.410;7.564;2023-10-31T14:01:04;2.80;;;1.30;;
46222;SDS011;31943;51.410;7.564;2023-10-31T14:03:31;3.42;;;1.50;;
46222;SDS011;31943;51.410;7.564;2023-10-31T14:05:57;2.30;;;1.17;;
46222;SDS011;31943;51.410;7.564;2023-10-31T14:08:22;3.70;;;1.40;;
46222;SDS011;31943;51.410;7.564;2023-10-31T14:10:48;3.53;;;1.50;;
46222;SDS011;31943;51.410;7.564;2023-10-31T14:13:14;3.47;;;1.10;;
46222;SDS011;31943;51.410;7.564;2023-10-31T14:15:39;1.92;;;0.93;;
46222;SDS011;31943;51.410;7.564;2023-10-31T14:18:06;5.10;;;1.05;;
46222;SDS011;31943;51.410;7.564;2023-10-31T14:20:33;2.67;;;1.25;;
46222;SDS011;31943;51.410;7.564;2023-10-31T14:22:58;4.13;;;1.30;;
46222;SDS011;31943;51.410;7.564;2023-10-31T14:25:23;3.67;;;1.30;;
46222;SDS011;31943;51.410;7.564;2023-10-31T14:27:49;2.88;;;1.15;;
46222;SDS011;31943;51.410;7.564;2023-10-31T14:30:15;3.25;;;1.20;;
46222;SDS011;31943;51.410;7.564;2023-10-31T14:32:40;2.85;;;1.10;;
46222;SDS011;31943;51.410;7.564;2023-10-31T14:35:06;3.75;;;1.17;;
46222;SDS011;31943;51.410;7.564;2023-10-31T14:37:34;2.67;;;1.00;;
46222;SDS011;31943;51.410;7.564;2023-10-31T14:39:59;3.78;;;1.05;;
46222;SDS011;31943;51.410;7.564;2023-10-31T14:42:26;3.67;;;1.17;;